If you wish to contribute or participate in the discussions about articles you are invited to join SKYbrary as a registered user

 Actions

Asahikawa

From SKYbrary Wiki

RJEC
Airport
ICAO: RJEC
Summary
Name Asahikawa
Region Asia and Pacific
Territory Japan JP.gif
Location Asahikawa, Hokkaidō
Serving
Coordinates 43° 40' 16.8737", 142° 27' 13.1684"
Runways
Designator Length Width Surface ROPS
16/34 2499 m8,198.819 ft 61 m200.131 ft ASP yes/yes
METAR
Observation RJEC 130100Z 20008KT 160V230 9999 -SHSN FEW010 SCT025 BKN045 M03/M07 Q1003
Station Asahikawa Airport
Date/Time 13 December 2017 01:00:00
Wind direction 200°
Wind speed 08 kts
Lowest cloud amount few clouds
Temperature
Dew point
Humidity 73%
QNH 1003 hPa
Weather condition light showers snow

Asahikawa Airport

ICAO: RJEC IATA: AKJ

Description

Asahikawa Airport is a single-runway regional airport in Hokkaidō, Japan, straddling the cities of Asahikawa and Higashikagura. It is a second class airport.

Climatology

Humid continental climate (Köppen climate classification Dfa) - characterized by four seasons: cold, windy, snowy winters, mild springs, hot, humid summers, and crisp and relatively short autumns. Precipitation reaches its lowest in January and February and peaks in summer and latter half of spring.

Maps

Terrain

Loading map...

Airport Layout

Loading map...


Accidents & Serious Incidents at or in vicinity of RJEC

None on SKYbrary